Atwood, California
Current Conditions -  °F | °C
As of 4:26 AM on Friday 31 Oct 2014 (Local Time) from KFUL Reporting Station
Broken Clouds Broken Clouds  
Wind Chill: 60°   Ceiling: 2000
Heat Index: 60°   Visibility: 10mi
Dew Point: 56°   Wind: 0mph
Humidity: 86%   Direction: NA
Pressure: 29.94"   Gusts: NA
Location:  33.87°N, 117.83°W
Report Text: KFUL 311126Z 00000KT 10SM BKN020 16/13 A2994 RMK AO2 T01560133 $
Loading
Personal Weather Stations






























Interactive Weather Map New forecast layout! Learn more

10-Day Weather Forecast

Advertisements
Track Severe Weather on mobile